• Join FlightAware (Why Join?)
  • Login
  • US Flag 
12:36AM EDT


 

Airport Tracker/Info


-or-


 

Live Flight TrackerFlight Track Log ✈ AAY863 ✈ 08-May-2014 ✈ KCID - KPIE

Flight Track Log - Related Links

Times and Time Zones

All times are in EDT time to prevent confusion due to time zone crossing. See the AAY863 flight status page for this flight to view local times or setup timezone preferences in your user account.

Time Position Orientation Groundspeed Altitude Reporting Facility
EDT Latitude Longitude Course Direction KTS MPH feet Rate Location/Type
06:03PM 41.8843 -91.7482 266° West 159 183 2,400  Level FlightAware ADS-B (KCID)
06:03PM 41.8824 -91.7701 262° West 177 204 2,700 1,620 Climbing FlightAware ADS-B (KCID)
06:03PM 41.8705 -91.7951 209° Southwest 173 199 3,600 1,680 Climbing FlightAware ADS-B (KCID)
06:04PM 41.8591 -91.7971 172° South 190 219 3,900 1,200 Climbing FlightAware ADS-B (KCID)
06:04PM 41.8455 -91.7905 156° South 219 252 4,200 1,500 Climbing FlightAware ADS-B (KCID)
06:04PM 41.8301 -91.7816 157° South 237 273 4,700 2,340 Climbing FlightAware ADS-B (KCID)
06:05PM 41.7921 -91.7595 156° South 259 298 6,200 2,700 Climbing FlightAware ADS-B (KCID)
06:05PM 41.7755 -91.7499 158° South 258 297 7,000 3,600 Climbing FlightAware ADS-B (KCID)
06:05PM 41.7586 -91.7411 160° South 252 290 8,000 3,480 Climbing FlightAware ADS-B (KCID)
06:06PM 41.7195 -91.7281 169° South 243 280 9,900 2,820 Climbing FlightAware ADS-B (KCID)
06:07PM 41.6735 -91.7153 165° South 261 300 11,600 2,340 Climbing FlightAware ADS-B (KCID)
06:07PM 41.6233 -91.6848 143° Southeast 296 341 13,200 2,160 Climbing FlightAware ADS-B (KCID)
06:08PM 41.5916 -91.6476 138° Southeast 312 359 14,300 2,040 Climbing FlightAware ADS-B (KCID)
06:09PM 41.5376 -91.5829 138° Southeast 329 379 15,900 1,740 Climbing FlightAware ADS-B (KCID)
06:09PM 41.5025 -91.5428 140° Southeast 350 403 16,600 1,800 Climbing FlightAware ADS-B (KCID)
06:10PM 41.4485 -91.4823 140° Southeast 360 414 18,100 1,860 Climbing FlightAware ADS-B (KCID)
06:11PM 41.3918 -91.4190 140° Southeast 372 428 19,400 1,740 Climbing FlightAware ADS-B (KCID)
06:11PM 41.3389 -91.3603 140° Southeast 370 426 20,900 1,740 Climbing Chicago Center
06:12PM 41.2586 -91.2694 140° Southeast 365 420 22,700 1,500 Climbing Chicago Center
06:13PM 41.1575 -91.1564 140° Southeast 394 453 24,100 1,260 Climbing Chicago Center
06:14PM 41.0664 -91.0658 143° Southeast 406 467 25,400 1,200 Climbing Chicago Center
06:16PM 40.9678 -90.9825 147° Southeast 416 479 26,700 1,200 Climbing Chicago Center
06:17PM 40.8711 -90.8917 145° Southeast 426 490 27,900 1,020 Climbing Chicago Center
06:18PM 40.7739 -90.7931 142° Southeast 438 504 28,900 1,080 Climbing Chicago Center
06:19PM 40.6764 -90.6883 141° Southeast 449 517 30,200 600 Climbing Chicago Center
06:25PM 40.0539 -90.0512 140° Southeast 442 509 33,400 540 Climbing FlightAware ADS-B
06:26PM 39.9536 -89.9589 140° Southeast 450 518 34,500 1,020 Climbing Kansas City Center
06:27PM 39.8489 -89.8900 153° Southeast 429 494 35,700 300 Climbing Kansas City Center
06:33PM 39.1477 -89.4205 153° Southeast 441 507 37,000 180 Climbing FlightAware ADS-B
06:34PM 39.0878 -89.3808 153° Southeast 442 509 37,000  Level FlightAware ADS-B
06:35PM 38.9444 -89.2867 153° Southeast 442 509 37,000  Level Kansas City Center
06:36PM 38.8303 -89.2089 152° Southeast 445 512 37,000  Level Kansas City Center
06:37PM 38.7203 -89.1375 153° Southeast 445 512 37,000  Level Kansas City Center
06:38PM 38.6094 -89.0683 154° Southeast 444 511 37,000  Level Kansas City Center
06:39PM 38.4864 -88.9867 153° Southeast 444 511 37,000  Level Kansas City Center
06:40PM 38.3758 -88.9144 153° Southeast 444 511 37,000  Level Kansas City Center
06:41PM 38.2794 -88.8528 153° Southeast 444 511 37,000  Level Kansas City Center
06:43PM 38.1683 -88.7803 153° Southeast 444 511 37,000  Level Kansas City Center
06:44PM 38.0342 -88.6953 153° Southeast 445 512 37,000  Level Kansas City Center
06:45PM 37.9253 -88.6250 153° Southeast 445 512 37,000  Level Kansas City Center
06:46PM 37.8106 -88.5522 153° Southeast 453 521 37,000  Level Kansas City Center
06:47PM 37.6978 -88.4800 153° Southeast 453 521 37,000  Level Kansas City Center
06:47PM 37.6125 -88.4275 154° Southeast 457 526 37,000  Level Memphis Center
06:48PM 37.4978 -88.3561 154° Southeast 457 526 37,000  Level Memphis Center
06:49PM 37.3831 -88.2817 153° Southeast 457 526 37,000  Level Memphis Center
06:50PM 37.2694 -88.2100 153° Southeast 457 526 37,000  Level Memphis Center
06:51PM 37.1300 -88.1239 154° Southeast 460 529 37,000  Level Memphis Center
06:52PM 37.0161 -88.0528 153° Southeast 460 529 37,000  Level Memphis Center
06:53PM 36.8983 -87.9797 154° Southeast 464 534 37,000  Level Memphis Center
06:54PM 36.7817 -87.9067 153° Southeast 464 534 37,000  Level Memphis Center
06:56PM 36.6642 -87.8333 153° Southeast 465 535 37,000  Level Memphis Center
06:57PM 36.5461 -87.7622 154° Southeast 465 535 37,000  Level Memphis Center
06:58PM 36.4281 -87.6897 154° Southeast 466 536 37,000  Level Memphis Center
06:59PM 36.2906 -87.6064 154° Southeast 467 537 37,000  Level Memphis Center
07:04PM 35.6565 -87.2245 154° Southeast 478 550 37,000  Level FlightAware ADS-B (KMDQ)
07:06PM 35.4751 -87.1165 154° Southeast 483 556 37,000  Level FlightAware ADS-B (KMDQ)
07:06PM 35.3928 -87.0675 154° Southeast 484 557 37,000  Level FlightAware ADS-B (KMDQ)
07:07PM 35.3062 -87.0163 154° Southeast 484 557 37,000  Level FlightAware ADS-B (KMDQ)
07:08PM 35.2305 -86.9716 154° Southeast 484 557 37,000  Level FlightAware ADS-B (KMDQ)
07:08PM 35.1630 -86.9318 154° Southeast 485 558 37,000  Level FlightAware ADS-B (KMDQ)
07:09PM 35.0224 -86.8492 154° Southeast 487 560 37,000  Level FlightAware ADS-B (KMDQ)
07:10PM 34.9458 -86.8043 154° Southeast 488 562 37,000  Level FlightAware ADS-B (KMDQ)
07:11PM 34.8647 -86.7568 154° Southeast 487 560 37,000  Level FlightAware ADS-B (KMDQ)
07:11PM 34.7790 -86.7068 154° Southeast 487 560 37,000  Level FlightAware ADS-B (KMDQ)
07:12PM 34.6988 -86.6602 154° Southeast 487 560 37,000  Level FlightAware ADS-B (KMDQ)
07:13PM 34.6178 -86.6131 154° Southeast 487 560 37,000  Level FlightAware ADS-B (KMDQ)
07:13PM 34.5367 -86.5660 154° Southeast 487 560 37,000  Level FlightAware ADS-B (KMDQ)
07:14PM 34.4556 -86.5192 154° Southeast 487 560 37,000  Level FlightAware ADS-B (KMDQ)
07:15PM 34.3710 -86.4704 154° Southeast 487 560 37,000  Level FlightAware ADS-B (KMDQ)
07:15PM 34.2901 -86.4239 155° Southeast 485 558 37,000  Level FlightAware ADS-B (KMDQ)
07:16PM 34.2133 -86.3798 155° Southeast 485 558 37,000 60 Level FlightAware ADS-B (KMDQ)
07:17PM 34.1339 -86.3342 155° Southeast 485 558 37,100 240 Climbing FlightAware ADS-B (KMDQ)
07:17PM 34.0473 -86.2846 155° Southeast 488 562 37,400 600 Climbing FlightAware ADS-B (KMDQ)
07:18PM 33.9647 -86.2375 155° Southeast 488 562 38,000 600 Climbing FlightAware ADS-B (KMDQ)
07:19PM 33.7972 -86.1386 154° Southeast 484 557 38,700 360 Climbing Atlanta Center
07:20PM 33.6731 -86.0706 155° Southeast 484 557 39,000 120 Climbing Atlanta Center
07:21PM 33.5386 -85.9928 154° Southeast 484 557 39,000  Level Atlanta Center
07:22PM 33.4147 -85.9203 154° Southeast 484 557 39,000  Level Atlanta Center
07:23PM 33.2903 -85.8556 157° South 484 557 39,000  Level Atlanta Center
07:24PM 33.1661 -85.7833 154° Southeast 489 563 39,000  Level Atlanta Center
07:25PM 33.2493 -85.8124 154° Southeast  Level FlightAware Approximate
07:25PM 33.0419 -85.7164 156° South 489 563 39,000  Level Atlanta Center
07:26PM 32.9133 -85.6422 154° Southeast 494 568 39,000  Level Atlanta Center
07:27PM 32.8014 -85.5833 156° South 501 577 39,000  Level Atlanta Center
07:28PM 32.6731 -85.5119 155° Southeast 501 577 39,000  Level Atlanta Center
07:29PM 32.5486 -85.4408 154° Southeast 501 577 39,000  Level Atlanta Center
07:30PM 32.4239 -85.3750 156° South 496 571 39,000  Level Atlanta Center
07:31PM 32.2953 -85.3042 155° Southeast 501 577 39,000  Level Atlanta Center
07:32PM 32.1667 -85.2339 155° Southeast 501 577 39,000  Level Atlanta Center
07:34PM 31.9403 -85.1131 156° South 501 577 39,000  Level Jacksonville Center
07:35PM 31.8286 -85.0517 155° Southeast 501 577 39,000  Level Jacksonville Center
07:36PM 31.7003 -84.9853 156° South 496 571 39,000  Level Jacksonville Center
07:37PM 31.5700 -84.9164 156° South 503 579 39,000  Level Jacksonville Center
07:38PM 31.4436 -84.8481 155° Southeast 503 579 39,000  Level Jacksonville Center
07:39PM 31.3172 -84.7797 155° Southeast 503 579 39,000  Level Jacksonville Center
07:40PM 31.1889 -84.7114 156° South 503 579 39,000  Level Jacksonville Center
07:41PM 31.0606 -84.6411 155° Southeast 503 579 39,000  Level Jacksonville Center
07:42PM 30.9361 -84.5614 151° Southeast 503 579 39,000  Level Jacksonville Center
07:43PM 30.8142 -84.4842 151° Southeast 503 579 39,000  Level Jacksonville Center
07:44PM 30.6897 -84.4097 153° Southeast 508 585 39,000  Level Jacksonville Center
07:45PM 30.5675 -84.3306 151° Southeast 508 585 39,000  Level Jacksonville Center
07:46PM 30.4450 -84.2539 152° Southeast 503 579 39,000 -60 Level Jacksonville Center
07:47PM 30.3122 -84.1750 153° Southeast 497 572 38,900 -60 Descending Jacksonville Center
07:48PM 30.1897 -84.0967 151° Southeast 497 572 38,900  Level Jacksonville Center
07:49PM 30.0736 -84.0303 154° Southeast 497 572 38,900  Level Jacksonville Center
07:50PM 29.9489 -83.9544 152° Southeast 503 579 38,900  Level Jacksonville Center
07:51PM 29.8264 -83.8789 152° Southeast 508 585 38,900 -180 Level Jacksonville Center
07:52PM 29.7017 -83.8036 152° Southeast 508 585 38,600 -1,620 Descending Jacksonville Center
07:53PM 29.5747 -83.7261 152° Southeast 508 585 35,700 -4,200 Descending Jacksonville Center
07:54PM 29.4500 -83.6508 152° Southeast 508 585 30,300 -4,020 Descending Jacksonville Center
07:55PM 29.3253 -83.5739 152° Southeast 508 585 27,700 -1,980 Descending Jacksonville Center
07:56PM 29.2025 -83.4992 152° Southeast 508 585 26,400 -1,440 Descending Jacksonville Center
07:58PM 28.9650 -83.3506 151° Southeast 489 563 23,500 -1,620 Descending Jacksonville Center
07:59PM 28.8486 -83.2742 150° Southeast 489 563 21,600 -2,100 Descending Jacksonville Center
08:00PM 28.7361 -83.2003 150° Southeast 477 549 19,300 -2,160 Descending Jacksonville Center
08:01PM 28.6275 -83.1339 152° Southeast 464 534 17,300 -2,400 Descending Jacksonville Center
08:02PM 28.5667 -83.1000 154° Southeast 413 475 15,700 -2,520 Descending Tampa TRACON
08:02PM 28.4833 -83.0500 152° Southeast 395 455 14,000 -2,160 Descending Tampa TRACON
08:03PM 28.4000 -82.9833 145° Southeast 377 434 11,800 -1,980 Descending Tampa TRACON
08:04PM 28.3167 -82.9333 152° Southeast 347 399 10,100 -960 Descending Tampa TRACON
08:05PM 28.2500 -82.8833 147° Southeast 272 313 9,900 -900 Descending Tampa TRACON
08:06PM 28.1833 -82.8500 156° South 250 288 8,300 -1,740 Descending Tampa TRACON
08:07PM 28.1000 -82.8333 170° South 258 297 6,500 -1,440 Descending Tampa TRACON
08:08PM 28.0333 -82.8167 168° South 253 291 5,500 -960 Descending Tampa TRACON
08:09PM 27.9833 -82.8000 164° South 203 234 4,600 -1,080 Descending Tampa TRACON
08:10PM 27.9167 -82.8000 180° South 210 242 3,400 -900 Descending Tampa TRACON
08:11PM 27.8667 -82.7833 164° South 203 234 2,900 -360 Descending Tampa TRACON
08:12PM 27.8167 -82.7667 164° South 166 191 2,700 -300 Descending Tampa TRACON
08:13PM 27.8000 -82.7333 119° Southeast 166 191 2,300 -360 Descending Tampa TRACON
08:14PM 27.8000 -82.6833 90° East 143 165 2,000 -420 Descending Tampa TRACON
08:15PM 27.8167 -82.6667 41° Northeast 131 151 1,500 -600 Descending Tampa TRACON
08:16PM 27.8500 -82.6833 336° Northwest 130 150 900 -600 Descending Tampa TRACON